Time;durP1;ratioP1;P1;durP2;ratioP2;P2;SDS_P1;SDS_P2;PMS_P1;PMS_P2;Temp;Humidity;BMP_temperature;BMP_pressure;BME280_temperature;BME280_humidity;BME280_pressure;Samples;Min_cycle;Max_cycle;Signal;HPM_P1;HPM_P2
2022/06/21 00:02:11;;;;;;;4.43;1.60;;;;;;;20.15;43.48;99909.53;4975937;28;20075;-77
2022/06/21 00:04:39;;;;;;;3.15;1.40;;;;;;;20.16;43.49;99910.38;4985023;28;20042;-77
2022/06/21 00:07:11;;;;;;;2.50;1.55;;;;;;;20.11;43.83;99902.88;4982418;28;20406;-77
2022/06/21 00:09:37;;;;;;;2.15;1.60;;;;;;;20.10;43.69;99906.59;4977370;28;20076;-78
2022/06/21 00:12:05;;;;;;;1.75;1.33;;;;;;;20.07;43.70;99919.63;4983921;28;20136;-78
2022/06/21 00:14:31;;;;;;;3.83;1.80;;;;;;;20.04;43.83;99917.31;4978033;28;20576;-79
2022/06/21 00:16:58;;;;;;;2.65;1.45;;;;;;;20.03;43.74;99918.38;4968715;28;20128;-80
2022/06/21 00:19:26;;;;;;;4.78;1.70;;;;;;;19.97;43.94;99917.25;4978792;28;20487;-80
2022/06/21 00:21:53;;;;;;;2.10;1.80;;;;;;;19.93;43.95;99916.81;4985779;28;20056;-80
2022/06/21 00:24:19;;;;;;;3.35;1.67;;;;;;;19.92;44.04;99919.72;5004474;28;20034;-78
2022/06/21 00:26:46;;;;;;;1.40;1.30;;;;;;;19.84;44.24;99922.53;4976984;28;20050;-78
2022/06/21 00:29:14;;;;;;;3.42;1.60;;;;;;;19.82;43.99;99922.75;4987569;28;20293;-78
2022/06/21 00:31:46;;;;;;;2.65;1.30;;;;;;;19.78;44.39;99921.47;4986635;28;20041;-78
2022/06/21 00:34:19;;;;;;;3.03;1.52;;;;;;;19.75;44.90;99923.72;4996007;28;20054;-78
2022/06/21 00:36:46;;;;;;;;;;;;;;;19.73;44.78;99924.72;4970930;28;20037;-78
2022/06/21 00:39:15;;;;;;;4.07;1.40;;;;;;;19.73;44.55;99915.81;4984427;28;19936;-78
2022/06/21 00:41:53;;;;;;;2.03;1.50;;;;;;;19.68;44.87;99918.25;4965271;28;20425;-77
2022/06/21 00:44:38;;;;;;;1.63;1.33;;;;;;;19.67;44.83;99933.59;5001751;28;20037;-77
2022/06/21 00:47:12;;;;;;;2.67;1.45;;;;;;;19.68;44.58;99929.88;4984628;28;20517;-77
2022/06/21 00:49:59;;;;;;;1.52;1.42;;;;;;;19.62;45.02;99922.53;4979841;28;20048;-77
2022/06/21 00:52:37;;;;;;;3.28;1.42;;;;;;;19.59;44.90;99925.63;4965735;28;20120;-78
2022/06/21 00:55:08;;;;;;;1.77;1.52;;;;;;;19.61;44.68;99934.31;4980015;28;20042;-78
2022/06/21 00:57:51;;;;;;;1.50;1.40;;;;;;;19.58;44.85;99929.31;4971337;28;20132;-78
2022/06/21 01:00:29;;;;;;;2.70;1.80;;;;;;;19.56;45.06;99925.16;4984602;28;20485;-77
2022/06/21 01:02:58;;;;;;;1.67;1.25;;;;;;;19.52;45.01;99939.00;4999874;28;20050;-77
2022/06/21 01:05:28;;;;;;;2.75;1.45;;;;;;;19.51;44.64;99923.03;4987688;28;20038;-77
2022/06/21 01:07:56;;;;;;;1.65;1.55;;;;;;;19.47;45.04;99921.75;4997037;28;20046;-77
2022/06/21 01:10:26;;;;;;;3.08;1.60;;;;;;;19.43;44.83;99907.81;4985545;28;20455;-80
2022/06/21 01:12:59;;;;;;;3.45;1.60;;;;;;;19.41;45.20;99911.75;5001045;28;20046;-80
2022/06/21 01:15:36;;;;;;;2.67;1.80;;;;;;;19.40;44.95;99921.69;4969928;28;20076;-80
2022/06/21 01:18:05;;;;;;;2.97;1.55;;;;;;;19.35;44.88;99909.81;4980139;28;20042;-80
2022/06/21 01:20:34;;;;;;;2.03;1.58;;;;;;;19.32;45.13;99910.22;4979092;28;20054;-79
2022/06/21 01:23:28;;;;;;;4.28;2.90;;;;;;;19.26;45.62;99909.13;4986822;28;20050;-80
2022/06/21 01:26:13;;;;;;;3.03;1.65;;;;;;;19.22;44.84;99897.88;4955220;28;20409;-80
2022/06/21 01:28:40;;;;;;;1.73;1.30;;;;;;;19.05;45.11;99905.34;4947879;28;20050;-80
2022/06/21 01:31:07;;;;;;;2.00;1.80;;;;;;;18.84;45.42;99899.91;4969464;28;20046;-80
2022/06/21 01:33:39;;;;;;;1.60;1.50;;;;;;;18.71;45.83;99894.34;4980667;28;20448;-80
2022/06/21 01:36:20;;;;;;;2.30;1.60;;;;;;;18.66;46.13;99894.91;4988618;28;20038;-78
2022/06/21 01:38:54;;;;;;;3.20;1.75;;;;;;;18.68;45.82;99898.25;4987836;28;20050;-77
2022/06/21 01:41:27;;;;;;;3.38;1.80;;;;;;;18.75;45.92;99901.00;4978904;28;20049;-81
2022/06/21 01:43:56;;;;;;;2.05;1.40;;;;;;;18.77;45.74;99893.63;4964173;28;20066;-80
2022/06/21 01:46:28;;;;;;;2.30;1.80;;;;;;;18.78;45.71;99895.31;4982252;28;20064;-81
2022/06/21 01:49:00;;;;;;;1.95;1.48;;;;;;;18.79;45.68;99900.47;4985247;28;20592;-80
2022/06/21 01:51:36;;;;;;;4.45;1.77;;;;;;;18.79;45.97;99894.28;4977517;28;20050;-80
2022/06/21 01:54:05;;;;;;;3.88;1.60;;;;;;;18.78;45.62;99893.44;4974283;28;20050;-80
2022/06/21 01:56:36;;;;;;;2.40;1.50;;;;;;;18.78;45.88;99890.75;4986543;28;20124;-78
2022/06/21 01:59:15;;;;;;;2.13;1.48;;;;;;;18.78;45.91;99889.91;4981491;28;20054;-77
2022/06/21 02:01:50;;;;;;;4.10;1.60;;;;;;;18.78;45.85;99893.44;4952646;28;20112;-77
2022/06/21 02:04:20;;;;;;;3.08;1.52;;;;;;;18.78;45.94;99893.44;4982158;28;20045;-77
2022/06/21 02:06:48;;;;;;;3.47;1.80;;;;;;;18.76;45.52;99887.41;4983790;28;20486;-77
2022/06/21 02:09:25;;;;;;;3.60;2.00;;;;;;;18.72;46.08;99877.16;4996437;28;20069;-77
2022/06/21 02:12:02;;;;;;;3.17;1.65;;;;;;;18.69;45.89;99869.47;4947019;28;20046;-77
2022/06/21 02:14:33;;;;;;;2.63;1.92;;;;;;;18.64;46.14;99857.41;4967516;28;20056;-77
2022/06/21 02:17:05;;;;;;;2.65;1.70;;;;;;;18.63;45.93;99863.00;4982532;28;20405;-77
2022/06/21 02:19:39;;;;;;;2.55;1.90;;;;;;;18.59;46.25;99859.00;4963901;28;20043;-77
2022/06/21 02:22:12;;;;;;;3.53;1.75;;;;;;;18.58;46.26;99855.50;4988070;28;20383;-77
2022/06/21 02:24:39;;;;;;;2.42;1.58;;;;;;;18.59;45.89;99848.25;5000587;28;20141;-78
2022/06/21 02:27:06;;;;;;;2.00;1.58;;;;;;;18.56;46.18;99843.25;4993917;28;20077;-77
2022/06/21 02:29:34;;;;;;;3.28;1.95;;;;;;;18.54;46.08;99851.50;4954510;28;20053;-77
2022/06/21 02:32:01;;;;;;;2.20;2.00;;;;;;;18.53;46.17;99846.31;4970789;28;20038;-78
2022/06/21 02:34:34;;;;;;;3.05;1.88;;;;;;;18.47;46.20;99844.38;4984244;28;20053;-78
2022/06/21 02:37:02;;;;;;;2.00;1.75;;;;;;;18.47;46.06;99839.00;4991343;28;20055;-77
2022/06/21 02:39:30;;;;;;;2.92;1.75;;;;;;;18.44;46.00;99845.56;5001455;28;20080;-80
2022/06/21 02:42:16;;;;;;;2.33;1.80;;;;;;;18.37;46.56;99853.56;4978840;28;20045;-80
2022/06/21 02:44:47;;;;;;;1.52;1.40;;;;;;;18.37;46.41;99850.06;4978077;28;20042;-80
2022/06/21 02:47:17;;;;;;;4.22;1.75;;;;;;;18.35;46.28;99844.03;4985762;28;20049;-79
2022/06/21 02:49:49;;;;;;;2.60;1.90;;;;;;;18.32;46.22;99842.53;4979571;28;20639;-80
2022/06/21 02:52:22;;;;;;;1.92;1.50;;;;;;;18.28;46.55;99843.09;4977971;28;20124;-80
2022/06/21 02:54:58;;;;;;;3.50;1.90;;;;;;;18.23;46.64;99849.84;4977760;28;20064;-79
2022/06/21 02:57:30;;;;;;;2.70;1.77;;;;;;;18.23;46.26;99843.63;4966608;28;20045;-79
2022/06/21 02:59:58;;;;;;;3.08;2.00;;;;;;;18.23;46.58;99846.31;4992832;28;20497;-80
2022/06/21 03:02:26;;;;;;;5.20;2.15;;;;;;;18.16;46.52;99850.75;4965269;28;20135;-80
2022/06/21 03:04:57;;;;;;;2.92;1.92;;;;;;;18.11;46.51;99845.94;4975679;28;20379;-79
2022/06/21 03:07:38;;;;;;;3.47;1.73;;;;;;;18.09;47.16;99845.31;4984024;28;20045;-79
2022/06/21 03:10:16;;;;;;;2.30;1.90;;;;;;;18.08;47.17;99849.00;4958226;28;20053;-79
2022/06/21 03:12:43;;;;;;;2.08;1.65;;;;;;;18.08;46.60;99845.47;4980213;28;20133;-79
2022/06/21 03:15:11;;;;;;;4.10;1.73;;;;;;;18.03;46.64;99839.81;4975941;28;20383;-79
2022/06/21 03:17:58;;;;;;;2.97;1.80;;;;;;;17.92;47.63;99836.56;4981359;28;20042;-79
2022/06/21 03:20:25;;;;;;;3.15;2.05;;;;;;;17.95;46.94;99846.94;4964864;28;20369;-79
2022/06/21 03:22:53;;;;;;;2.25;2.03;;;;;;;17.91;46.94;99842.97;4961081;28;20454;-79
2022/06/21 03:25:23;;;;;;;2.03;1.80;;;;;;;17.88;47.39;99840.63;4978996;28;20049;-79
2022/06/21 03:27:53;;;;;;;3.10;2.00;;;;;;;17.85;47.29;99834.81;4962659;28;20034;-79
2022/06/21 03:30:22;;;;;;;3.13;2.20;;;;;;;17.85;47.03;99816.81;4999179;28;20120;-79
2022/06/21 03:32:52;;;;;;;2.30;2.03;;;;;;;17.84;47.15;99814.34;4992776;28;20114;-79
2022/06/21 03:35:19;;;;;;;2.45;1.70;;;;;;;17.86;47.44;99815.81;4975439;28;20104;-79
2022/06/21 03:37:46;;;;;;;4.10;2.00;;;;;;;17.85;47.45;99818.69;4959408;28;20046;-79
2022/06/21 03:43:25;;;;;;;3.78;2.20;;;;;;;17.91;47.90;99801.81;4946927;28;20065;-79
2022/06/21 03:45:53;;;;;;;2.45;2.00;;;;;;;18.28;47.20;99800.06;4953091;28;20053;-79
2022/06/21 03:48:39;;;;;;;4.22;2.15;;;;;;;18.63;46.38;99793.91;4976772;28;20057;-79
2022/06/21 03:51:15;;;;;;;3.70;2.00;;;;;;;18.86;45.60;99787.56;4944023;28;20082;-79
2022/06/21 03:53:50;;;;;;;2.17;2.00;;;;;;;18.97;45.25;99788.91;4997887;28;20100;-79
2022/06/21 03:56:41;;;;;;;3.10;2.00;;;;;;;19.03;45.14;99788.13;4997440;28;20518;-79
2022/06/21 03:59:14;;;;;;;1.83;1.70;;;;;;;19.12;45.05;99778.94;4970685;28;20038;-79
2022/06/21 04:01:45;;;;;;;;;;;;;;;19.05;44.97;99786.09;4986168;28;20042;-78
2022/06/21 04:04:17;;;;;;;3.10;2.05;;;;;;;19.18;45.03;99783.53;4981135;28;20012;-77
2022/06/21 04:06:55;;;;;;;3.47;2.20;;;;;;;19.19;44.65;99789.75;4981040;28;20049;-79
2022/06/21 04:09:35;;;;;;;2.47;2.17;;;;;;;19.25;44.76;99779.03;4978663;28;20049;-79
2022/06/21 04:12:25;;;;;;;3.50;1.75;;;;;;;19.33;44.79;99772.69;4993839;28;20046;-79
2022/06/21 04:14:56;;;;;;;3.35;2.05;;;;;;;19.33;44.76;99777.25;4985492;28;21009;-77
2022/06/21 04:17:25;;;;;;;4.03;2.15;;;;;;;19.31;44.93;99780.16;4983737;28;20158;-77
2022/06/21 04:20:32;;;;;;;3.33;2.10;;;;;;;19.33;44.85;99790.72;4985240;28;20092;-77
2022/06/21 04:23:12;;;;;;;2.63;2.05;;;;;;;19.48;44.98;99778.81;4917056;28;20052;-76
2022/06/21 04:25:46;;;;;;;2.50;1.80;;;;;;;19.53;44.60;99773.69;4988717;28;20132;-79
2022/06/21 04:28:27;;;;;;;4.00;2.10;;;;;;;19.58;44.41;99772.28;4999720;28;20417;-79
2022/06/21 04:31:16;;;;;;;3.95;2.10;;;;;;;19.61;44.51;99783.47;4965860;28;20056;-79
2022/06/21 04:33:49;;;;;;;4.93;2.10;;;;;;;19.79;44.76;99787.56;4937237;28;20517;-79
2022/06/21 04:36:21;;;;;;;3.20;2.20;;;;;;;19.87;44.14;99776.63;4973570;28;20047;-77
2022/06/21 04:38:59;;;;;;;3.03;2.05;;;;;;;19.81;44.04;99767.47;4964354;28;20417;-79
2022/06/21 04:41:32;;;;;;;3.00;2.20;;;;;;;19.79;44.42;99772.22;4970938;28;20054;-77
2022/06/21 04:44:04;;;;;;;2.33;2.13;;;;;;;19.82;44.31;99769.16;4961456;28;20046;-81
2022/06/21 04:46:37;;;;;;;8.13;2.20;;;;;;;19.86;44.45;99764.19;4945200;28;20050;-77
2022/06/21 04:49:22;;;;;;;;;;;;;;;19.68;44.46;99762.84;4963473;28;20121;-82
2022/06/21 04:51:56;;;;;;;4.68;2.45;;;;;;;19.61;44.20;99770.00;4978658;28;19930;-80
2022/06/21 04:54:28;;;;;;;3.92;2.88;;;;;;;19.48;44.22;99764.53;4964668;28;20494;-81
2022/06/21 04:57:03;;;;;;;3.13;2.25;;;;;;;19.38;44.74;99766.72;4962917;28;20540;-78
2022/06/21 04:59:46;;;;;;;2.80;2.47;;;;;;;19.33;44.71;99769.16;4957290;28;20043;-80
2022/06/21 05:02:22;;;;;;;2.92;2.42;;;;;;;19.29;44.90;99772.25;4980718;28;20104;-78
2022/06/21 05:05:15;;;;;;;8.27;2.22;;;;;;;19.23;45.21;99770.34;4966231;28;21284;-85
2022/06/21 05:07:52;;;;;;;4.37;2.73;;;;;;;19.22;45.20;99773.22;4994844;28;20092;-82
2022/06/21 05:10:24;;;;;;;3.05;2.72;;;;;;;19.22;45.70;99787.50;4994028;28;20042;-84
2022/06/21 05:12:52;;;;;;;4.30;2.47;;;;;;;19.28;45.05;99778.69;4986493;28;20061;-84
2022/06/21 05:15:24;;;;;;;3.20;2.10;;;;;;;19.12;45.65;99778.09;4995029;28;20038;-83
2022/06/21 05:17:57;;;;;;;4.90;2.47;;;;;;;18.93;46.42;99774.16;4980822;28;20052;-83
2022/06/21 05:20:26;;;;;;;;;;;;;;;18.89;46.76;99771.03;4966153;28;20050;-82
2022/06/21 05:22:56;;;;;;;3.20;2.00;;;;;;;18.92;46.17;99775.19;4979444;28;19922;-82
2022/06/21 05:25:30;;;;;;;3.13;2.10;;;;;;;18.95;46.36;99786.41;4986450;28;20065;-82
2022/06/21 05:28:00;;;;;;;3.28;1.80;;;;;;;18.91;46.10;99782.44;4980191;28;20053;-83
2022/06/21 05:30:50;;;;;;;4.40;2.00;;;;;;;18.82;46.23;99772.81;4996720;28;20046;-84
2022/06/21 05:33:41;;;;;;;2.95;1.67;;;;;;;18.90;45.65;99777.25;4941480;28;20045;-87
2022/06/21 05:36:34;;;;;;;3.80;1.90;;;;;;;18.60;46.17;99769.25;4967424;28;20057;-87
2022/06/21 05:39:12;;;;;;;3.20;1.55;;;;;;;18.77;46.07;99767.19;4964780;28;20057;-89
2022/06/21 05:41:43;;;;;;;4.72;2.00;;;;;;;18.94;46.39;99770.47;4986271;28;20533;-88
2022/06/21 05:44:19;;;;;;;2.38;1.80;;;;;;;18.99;46.19;99768.03;4967194;28;20493;-87
2022/06/21 05:46:53;;;;;;;4.22;1.98;;;;;;;19.10;46.17;99775.59;4947855;28;20107;-84
2022/06/21 05:49:34;;;;;;;3.47;1.98;;;;;;;19.19;46.16;99771.75;4967202;28;20133;-84
2022/06/21 05:52:05;;;;;;;4.05;2.00;;;;;;;19.28;45.98;99788.59;4963397;28;20050;-84
2022/06/21 05:54:36;;;;;;;4.50;2.25;;;;;;;19.34;45.99;99797.78;4984943;28;20449;-84
2022/06/21 05:57:05;;;;;;;2.67;1.92;;;;;;;19.36;45.63;99791.16;4982744;28;20065;-85
2022/06/21 05:59:31;;;;;;;4.43;2.03;;;;;;;19.43;45.64;99783.94;4974254;28;20566;-84
2022/06/21 06:02:09;;;;;;;3.97;2.22;;;;;;;19.45;45.73;99781.06;4981184;28;20057;-82
2022/06/21 06:05:07;;;;;;;2.60;1.75;;;;;;;19.55;45.63;99773.50;4951735;28;20034;-81
2022/06/21 06:07:39;;;;;;;3.10;1.88;;;;;;;19.58;45.96;99770.41;4963219;28;20057;-86
2022/06/21 06:15:02;;;;;;;4.40;1.88;;;;;;;19.59;44.79;99766.69;4956759;28;20597;-86
2022/06/21 06:17:47;;;;;;;4.13;2.08;;;;;;;19.66;45.04;99764.84;4938108;28;20095;-80
2022/06/21 06:20:22;;;;;;;3.38;1.95;;;;;;;19.73;44.86;99768.47;4985747;28;20807;-80
2022/06/21 06:23:15;;;;;;;3.28;2.00;;;;;;;19.69;45.22;99761.84;4967932;28;20056;-81
2022/06/21 06:25:54;;;;;;;4.65;1.95;;;;;;;19.72;45.10;99766.81;4951277;28;20068;-80
2022/06/21 06:28:43;;;;;;;4.53;2.10;;;;;;;19.74;45.06;99755.81;4970355;28;20137;-80
2022/06/21 06:31:31;;;;;;;2.47;1.80;;;;;;;19.81;45.21;99755.88;4988551;28;20049;-80
2022/06/21 06:34:04;;;;;;;4.05;1.90;;;;;;;19.89;45.10;99771.88;4982912;28;20124;-80
2022/06/21 06:36:37;;;;;;;5.47;1.80;;;;;;;19.96;45.24;99786.25;4974549;28;20059;-83
2022/06/21 06:39:29;;;;;;;3.72;1.85;;;;;;;20.06;45.21;99797.50;4993429;28;20041;-81
2022/06/21 06:42:16;;;;;;;4.25;1.92;;;;;;;19.98;45.55;99794.97;4983515;28;20069;-81
2022/06/21 06:44:45;;;;;;;7.63;2.13;;;;;;;20.02;46.04;99798.09;4954661;28;20054;-81
2022/06/21 06:47:16;;;;;;;3.88;2.08;;;;;;;20.07;45.87;99798.31;4997474;28;20124;-80
2022/06/21 06:49:46;;;;;;;3.03;1.70;;;;;;;20.06;45.50;99802.06;4984389;28;20130;-81
2022/06/21 06:52:18;;;;;;;4.50;1.90;;;;;;;20.10;45.52;99800.66;4965431;28;20054;-80
2022/06/21 06:55:01;;;;;;;3.90;2.10;;;;;;;20.10;45.18;99797.94;4974722;28;20093;-80
2022/06/21 06:57:42;;;;;;;3.08;1.80;;;;;;;20.17;45.36;99805.03;4953446;28;20339;-79
2022/06/21 07:00:24;;;;;;;3.97;2.00;;;;;;;20.23;44.58;99797.19;4967208;28;20045;-79
2022/06/21 07:02:54;;;;;;;4.72;2.17;;;;;;;20.29;44.92;99793.69;4969260;28;20046;-81
2022/06/21 07:05:32;;;;;;;4.82;2.05;;;;;;;20.34;44.58;99797.44;4976025;28;20050;-87
2022/06/21 07:08:34;;;;;;;2.38;1.88;;;;;;;20.37;44.33;99804.28;4945301;28;20041;-90
2022/06/21 07:11:04;;;;;;;3.75;2.10;;;;;;;20.38;44.58;99796.00;4978236;28;20041;-88
2022/06/21 07:13:33;;;;;;;5.03;2.35;;;;;;;20.45;44.49;99801.41;4966255;28;20048;-86
2022/06/21 07:16:03;;;;;;;6.35;2.28;;;;;;;20.50;43.90;99801.66;4964868;28;20133;-85
2022/06/21 07:18:34;;;;;;;5.57;2.35;;;;;;;20.50;43.96;99801.66;4984362;28;20406;-89
2022/06/21 07:21:04;;;;;;;6.20;2.00;;;;;;;20.59;43.48;99807.75;4955312;28;20133;-86
2022/06/21 07:23:31;;;;;;;5.03;2.10;;;;;;;20.51;43.88;99802.50;4989903;28;20057;-87
2022/06/21 07:26:03;;;;;;;4.60;2.17;;;;;;;20.57;43.59;99796.31;4983400;28;20054;-87
2022/06/21 07:28:37;;;;;;;6.43;2.70;;;;;;;20.53;42.48;99809.38;4984636;28;20501;-86
2022/06/21 07:31:15;;;;;;;4.80;2.00;;;;;;;20.42;42.90;99812.63;4980337;28;20042;-86
2022/06/21 07:33:53;;;;;;;5.05;2.55;;;;;;;20.52;42.24;99813.06;4946547;28;20148;-88
2022/06/21 07:36:27;;;;;;;7.82;2.55;;;;;;;20.69;42.73;99815.47;4950765;28;20045;-85
2022/06/21 07:38:53;;;;;;;5.25;1.92;;;;;;;20.67;43.26;99814.84;4974020;28;20054;-84
2022/06/21 07:41:30;;;;;;;5.88;1.92;;;;;;;20.61;42.53;99811.09;4983127;28;20036;-85
2022/06/21 07:44:03;;;;;;;5.40;2.13;;;;;;;20.72;42.91;99805.09;4967504;28;20105;-84
2022/06/21 07:46:40;;;;;;;7.57;2.30;;;;;;;20.70;42.16;99798.22;4992669;28;20920;-88
2022/06/21 07:49:27;;;;;;;5.45;2.38;;;;;;;20.85;42.38;99790.81;4948126;28;20121;-89
2022/06/21 07:52:05;;;;;;;4.50;2.28;;;;;;;20.79;42.08;99778.13;4963885;28;20565;-88
2022/06/21 07:54:39;;;;;;;4.43;2.13;;;;;;;20.85;41.54;99763.81;4973386;28;20052;-87
2022/06/21 07:57:57;;;;;;;3.15;1.95;;;;;;;20.77;41.21;99713.56;4995308;28;20081;-84
2022/06/21 08:06:40;;;;;;;7.35;1.85;;;;;;;20.78;41.66;99655.03;4921307;28;20042;-87
2022/06/21 08:08:50;;;;;;;5.28;2.13;;;;;;;20.64;42.15;99694.66;4950391;28;20103;-86
2022/06/21 08:11:33;;;;;;;8.45;1.95;;;;;;;20.65;41.89;99690.09;4951602;28;20053;-87
2022/06/21 08:14:07;;;;;;;2.70;1.83;;;;;;;20.68;41.56;99692.38;4993752;28;20082;-87
2022/06/21 08:16:43;;;;;;;5.93;2.00;;;;;;;20.72;41.56;99702.56;4970624;28;20054;-87
2022/06/21 08:19:18;;;;;;;5.13;1.92;;;;;;;20.82;41.38;99699.47;4950908;28;20428;-87
2022/06/21 08:21:50;;;;;;;5.22;2.17;;;;;;;20.85;41.70;99682.84;4969293;28;20073;-84
2022/06/21 08:24:21;;;;;;;5.70;2.05;;;;;;;20.85;41.41;99682.03;4981680;28;20182;-88
2022/06/21 08:27:22;;;;;;;5.20;1.80;;;;;;;20.80;41.05;99678.06;4972451;28;20046;-85
2022/06/21 08:29:56;;;;;;;3.45;1.95;;;;;;;20.94;41.34;99687.03;4934076;28;20038;-88
2022/06/21 08:32:38;;;;;;;2.78;2.00;;;;;;;21.00;41.41;99690.75;4965112;28;20128;-87
2022/06/21 08:35:16;;;;;;;3.23;2.00;;;;;;;21.01;41.61;99666.25;4950945;28;20084;-87
2022/06/21 08:38:01;;;;;;;3.83;2.30;;;;;;;21.16;41.60;99689.50;4950744;28;20545;-88
2022/06/21 08:40:41;;;;;;;6.68;2.50;;;;;;;21.13;41.41;99700.72;4946481;28;20062;-86
2022/06/21 08:43:31;;;;;;;6.90;2.38;;;;;;;21.12;41.11;99699.91;4952603;28;20061;-86
2022/06/21 08:46:20;;;;;;;9.38;2.25;;;;;;;21.20;41.23;99701.56;4967831;28;20057;-86
2022/06/21 08:48:56;;;;;;;2.22;1.88;;;;;;;21.25;41.41;99709.88;4953870;28;20054;-87
2022/06/21 08:51:30;;;;;;;7.40;2.53;;;;;;;21.27;40.97;99697.00;4987555;28;20129;-88
2022/06/21 08:54:12;;;;;;;7.32;2.13;;;;;;;21.28;41.58;99692.41;4980276;28;20050;-93
2022/06/21 08:57:00;;;;;;;3.63;1.90;;;;;;;21.31;41.78;99695.50;4952092;28;20054;-87
2022/06/21 08:59:39;;;;;;;3.08;1.83;;;;;;;21.41;41.07;99697.84;4962047;28;20646;-90
2022/06/21 09:02:14;;;;;;;6.72;2.33;;;;;;;21.52;40.77;99689.06;4948052;28;20046;-87
2022/06/21 09:05:03;;;;;;;5.55;1.63;;;;;;;21.43;40.10;99690.34;4949866;28;20052;-86
2022/06/21 09:07:49;;;;;;;3.20;1.75;;;;;;;21.62;40.46;99684.06;4902637;28;20712;-88
2022/06/21 09:10:54;;;;;;;5.70;1.73;;;;;;;21.58;39.34;99677.44;4898329;28;20047;-86
2022/06/21 09:13:23;;;;;;;6.00;2.15;;;;;;;21.72;39.86;99688.22;4847158;28;21808;-87
2022/06/21 09:16:18;;;;;;;5.43;2.33;;;;;;;21.77;39.10;99678.41;4943889;28;20070;-87
2022/06/21 09:18:49;;;;;;;2.42;1.50;;;;;;;21.79;39.19;99686.31;4915559;28;20066;-86
2022/06/21 09:21:26;;;;;;;3.65;2.00;;;;;;;21.83;38.74;99674.88;4928238;28;20055;-87
2022/06/21 09:24:26;;;;;;;2.75;1.92;;;;;;;21.82;38.78;99659.69;4929354;28;21135;-89
2022/06/21 09:27:01;;;;;;;7.53;2.05;;;;;;;21.87;39.09;99651.75;4879682;28;20163;-84
2022/06/21 09:29:54;;;;;;;4.78;1.67;;;;;;;21.85;39.12;99645.75;4912911;28;20043;-86
2022/06/21 09:32:51;;;;;;;4.13;1.60;;;;;;;21.89;38.88;99630.75;4884835;28;20040;-85
2022/06/21 09:35:44;;;;;;;3.42;1.60;;;;;;;21.87;37.79;99640.94;4889876;28;20093;-86
2022/06/21 09:38:41;;;;;;;2.30;1.53;;;;;;;21.86;38.21;99643.88;4940315;28;20273;-87
2022/06/21 09:41:34;;;;;;;5.05;1.70;;;;;;;21.88;38.62;99639.09;5002117;28;20053;-85
2022/06/21 09:44:17;;;;;;;6.38;1.92;;;;;;;21.96;38.72;99643.44;4967947;28;20058;-89
2022/06/21 09:47:00;;;;;;;5.13;2.30;;;;;;;21.93;37.68;99630.31;4996277;28;20045;-89
2022/06/21 09:49:40;;;;;;;5.97;2.13;;;;;;;22.00;38.12;99639.25;4946912;28;20512;-80
2022/06/21 09:52:17;;;;;;;6.22;1.92;;;;;;;22.01;38.39;99633.63;4984500;28;20469;-83
2022/06/21 09:54:57;;;;;;;5.72;1.73;;;;;;;21.93;38.29;99638.44;4988315;28;20046;-87
2022/06/21 09:57:29;;;;;;;5.90;1.90;;;;;;;22.02;38.54;99647.97;4954932;28;20049;-83
2022/06/21 10:00:28;;;;;;;4.72;1.63;;;;;;;21.98;37.69;99654.84;4947965;28;20501;-84
2022/06/21 10:03:24;;;;;;;4.47;1.60;;;;;;;22.02;37.82;99645.28;4956100;28;20046;-83
2022/06/21 10:06:05;;;;;;;4.72;1.80;;;;;;;21.98;37.92;99638.63;4996775;28;20049;-82
2022/06/21 10:09:09;;;;;;;4.25;2.00;;;;;;;21.96;38.79;99638.03;4946008;28;20096;-81
2022/06/21 10:11:52;;;;;;;3.35;1.90;;;;;;;22.00;38.62;99631.13;4938915;28;20565;-81
2022/06/21 10:14:31;;;;;;;3.72;2.05;;;;;;;22.07;39.21;99621.94;4948247;28;20054;-83
2022/06/21 10:17:14;;;;;;;5.65;1.80;;;;;;;22.07;39.13;99629.22;4952429;28;20133;-84
2022/06/21 10:20:00;;;;;;;5.30;2.05;;;;;;;22.08;38.93;99620.91;4940325;28;20418;-82
2022/06/21 10:23:01;;;;;;;2.97;1.65;;;;;;;22.08;39.52;99625.47;4974423;28;20038;-81
2022/06/21 10:25:57;;;;;;;3.55;1.90;;;;;;;22.11;38.61;99608.84;4938100;28;20225;-80
2022/06/21 10:28:38;;;;;;;3.63;1.83;;;;;;;22.22;39.09;99613.56;4965095;28;20391;-83
2022/06/21 10:31:37;;;;;;;4.13;1.98;;;;;;;22.18;39.28;99615.00;4983989;28;20084;-80
2022/06/21 10:34:28;;;;;;;6.07;2.15;;;;;;;22.37;39.59;99615.16;4940844;28;20099;-82
2022/06/21 10:37:08;;;;;;;4.97;1.98;;;;;;;22.39;39.07;99618.44;4945374;28;20080;-81
2022/06/21 10:40:16;;;;;;;7.03;2.08;;;;;;;22.47;39.01;99610.91;4975826;28;20561;-85
2022/06/21 10:43:01;;;;;;;7.32;2.10;;;;;;;22.40;39.32;99603.91;4841593;29;20052;-87
2022/06/21 10:45:54;;;;;;;4.80;1.90;;;;;;;22.51;38.37;99605.88;4857483;29;20048;-86
2022/06/21 10:48:47;;;;;;;4.28;2.38;;;;;;;22.53;38.46;99598.38;4916513;28;20034;-88
2022/06/21 10:51:31;;;;;;;3.97;1.75;;;;;;;22.48;37.95;99611.75;4932780;28;20049;-86
2022/06/21 10:54:11;;;;;;;4.85;1.88;;;;;;;22.51;37.00;99600.47;4984681;28;20065;-84
2022/06/21 10:57:12;;;;;;;5.78;2.22;;;;;;;22.60;37.48;99599.16;4990443;28;20042;-85
2022/06/21 11:03:01;;;;;;;2.80;1.92;;;;;;;22.61;38.33;99584.56;4922014;28;20117;-80
2022/06/21 11:05:56;;;;;;;3.45;2.08;;;;;;;22.63;37.33;99585.19;4949381;28;20443;-81
2022/06/21 11:08:43;;;;;;;3.60;1.83;;;;;;;22.81;38.13;99580.88;4987139;28;20125;-79
2022/06/21 11:11:25;;;;;;;3.00;1.92;;;;;;;22.79;37.32;99577.56;4951022;28;20125;-81
2022/06/21 11:14:16;;;;;;;7.37;1.97;;;;;;;22.77;36.76;99564.28;4967065;28;20129;-82
2022/06/21 11:17:02;;;;;;;7.57;2.10;;;;;;;22.80;36.10;99557.59;4951082;28;20453;-81
2022/06/21 11:19:44;;;;;;;4.47;1.67;;;;;;;22.81;36.60;99556.53;4984398;28;20099;-81
2022/06/21 11:22:20;;;;;;;2.65;1.50;;;;;;;22.86;36.35;99553.97;4959784;28;20064;-81
2022/06/21 11:25:11;;;;;;;4.28;2.20;;;;;;;22.85;36.39;99539.63;4993323;28;20034;-89
2022/06/21 11:27:51;;;;;;;2.67;1.80;;;;;;;22.84;35.97;99545.25;4930213;28;20696;-82
2022/06/21 11:30:36;;;;;;;5.70;2.20;;;;;;;22.94;36.05;99538.25;4959030;28;20062;-82
2022/06/21 11:33:20;;;;;;;4.82;2.10;;;;;;;22.95;36.45;99531.00;4968391;28;20045;-82
2022/06/21 11:35:59;;;;;;;5.93;2.15;;;;;;;23.03;36.20;99536.13;4957435;28;20502;-81
2022/06/21 11:39:03;;;;;;;5.63;2.17;;;;;;;23.02;35.62;99542.59;4968465;28;20121;-82
2022/06/21 11:44:44;;;;;;;3.63;1.67;;;;;;;23.15;35.97;99550.59;4985989;28;20130;-86
2022/06/21 11:47:14;;;;;;;4.93;1.88;;;;;;;23.24;36.25;99547.59;4941313;28;20080;-84
2022/06/21 11:50:23;;;;;;;3.80;1.85;;;;;;;23.18;36.17;99552.03;4985824;28;20048;-82
2022/06/21 11:53:24;;;;;;;3.25;1.90;;;;;;;23.24;35.79;99531.31;4931598;28;20524;-86
2022/06/21 11:56:03;;;;;;;3.40;2.13;;;;;;;23.29;35.54;99520.63;4978967;28;20054;-84
2022/06/21 11:59:16;;;;;;;6.53;2.00;;;;;;;23.32;36.08;99518.28;4993260;28;20038;-86
2022/06/21 12:02:12;;;;;;;2.30;1.70;;;;;;;23.50;35.93;99522.03;4888938;28;20589;-88
2022/06/21 12:04:46;;;;;;;5.72;2.00;;;;;;;23.48;35.77;99508.72;4891399;28;20071;-82
2022/06/21 12:07:18;;;;;;;6.65;2.20;;;;;;;23.47;36.02;99498.94;4952571;28;20034;-85
2022/06/21 12:09:57;;;;;;;3.40;2.08;;;;;;;23.45;35.94;99489.38;4992170;28;20043;-86
2022/06/21 12:12:43;;;;;;;5.40;2.33;;;;;;;23.44;36.15;99485.84;4985426;28;20121;-85
2022/06/21 12:15:16;;;;;;;3.30;1.80;;;;;;;23.60;36.95;99479.78;4968358;28;20409;-84
2022/06/21 12:17:49;;;;;;;6.40;2.40;;;;;;;23.66;35.91;99469.06;4965585;28;20054;-84
2022/06/21 12:20:29;;;;;;;4.60;2.00;;;;;;;23.59;35.65;99469.19;4969901;28;20041;-81
2022/06/21 12:23:17;;;;;;;3.53;1.98;;;;;;;23.62;35.80;99469.53;4954312;28;20058;-83
2022/06/21 12:25:45;;;;;;;3.05;1.98;;;;;;;23.74;36.83;99460.69;4925923;28;20046;-80
2022/06/21 12:28:21;;;;;;;4.78;2.22;;;;;;;23.82;36.59;99468.47;4981643;28;20061;-80
2022/06/21 12:31:03;;;;;;;5.00;3.08;;;;;;;23.89;35.89;99449.38;4937958;28;20065;-81
2022/06/21 12:33:33;;;;;;;4.72;2.45;;;;;;;23.83;36.86;99454.66;4965102;28;20070;-80
2022/06/21 12:36:00;;;;;;;3.42;2.17;;;;;;;23.91;36.48;99458.09;4953954;28;20584;-84
2022/06/21 12:38:41;;;;;;;3.10;2.17;;;;;;;23.91;36.88;99453.50;5000748;28;20042;-87
2022/06/21 12:41:29;;;;;;;4.70;2.30;;;;;;;23.94;36.60;99461.19;4978130;28;20042;-85
2022/06/21 12:44:51;;;;;;;2.53;2.15;;;;;;;23.97;36.66;99447.16;4985294;28;20101;-85
2022/06/21 12:47:35;;;;;;;4.43;2.22;;;;;;;24.05;37.39;99443.28;4837974;29;20077;-84